sensor_id;sensor_type;location;lat;lon;timestamp;P1;durP1;ratioP1;P2;durP2;ratioP2
5491;SDS011;2768;53.540;10.224;2024-03-02T00:01:58;30.03;;;21.07;;
5491;SDS011;2768;53.540;10.224;2024-03-02T00:07:54;31.20;;;21.30;;
5491;SDS011;2768;53.540;10.224;2024-03-02T00:13:48;27.63;;;21.03;;
5491;SDS011;2768;53.540;10.224;2024-03-02T00:19:41;29.07;;;20.70;;
5491;SDS011;2768;53.540;10.224;2024-03-02T00:25:40;30.63;;;21.20;;
5491;SDS011;2768;53.540;10.224;2024-03-02T00:31:34;26.67;;;20.20;;
5491;SDS011;2768;53.540;10.224;2024-03-02T00:37:27;34.90;;;22.47;;
5491;SDS011;2768;53.540;10.224;2024-03-02T00:49:59;31.50;;;22.30;;
5491;SDS011;2768;53.540;10.224;2024-03-02T00:55:57;31.30;;;23.37;;
5491;SDS011;2768;53.540;10.224;2024-03-02T01:01:51;30.33;;;23.23;;
5491;SDS011;2768;53.540;10.224;2024-03-02T01:07:47;30.47;;;21.37;;
5491;SDS011;2768;53.540;10.224;2024-03-02T01:13:40;33.30;;;23.27;;
5491;SDS011;2768;53.540;10.224;2024-03-02T01:19:33;34.10;;;23.33;;
5491;SDS011;2768;53.540;10.224;2024-03-02T01:25:28;31.77;;;21.83;;
5491;SDS011;2768;53.540;10.224;2024-03-02T01:31:21;32.80;;;22.93;;
5491;SDS011;2768;53.540;10.224;2024-03-02T01:37:15;32.30;;;23.20;;
5491;SDS011;2768;53.540;10.224;2024-03-02T01:43:09;34.90;;;23.07;;
5491;SDS011;2768;53.540;10.224;2024-03-02T01:49:03;30.50;;;22.30;;
5491;SDS011;2768;53.540;10.224;2024-03-02T01:54:56;31.50;;;22.37;;
5491;SDS011;2768;53.540;10.224;2024-03-02T02:00:51;29.07;;;21.53;;
5491;SDS011;2768;53.540;10.224;2024-03-02T02:06:44;34.53;;;24.93;;
5491;SDS011;2768;53.540;10.224;2024-03-02T02:12:37;32.03;;;22.30;;
5491;SDS011;2768;53.540;10.224;2024-03-02T02:18:32;33.60;;;25.10;;
5491;SDS011;2768;53.540;10.224;2024-03-02T02:24:27;32.53;;;23.10;;
5491;SDS011;2768;53.540;10.224;2024-03-02T02:30:20;33.33;;;23.67;;
5491;SDS011;2768;53.540;10.224;2024-03-02T02:36:14;31.23;;;21.73;;
5491;SDS011;2768;53.540;10.224;2024-03-02T02:42:09;32.97;;;22.13;;
5491;SDS011;2768;53.540;10.224;2024-03-02T02:48:02;29.27;;;21.33;;
5491;SDS011;2768;53.540;10.224;2024-03-02T02:53:56;28.00;;;22.07;;
5491;SDS011;2768;53.540;10.224;2024-03-02T02:59:51;32.83;;;23.40;;
5491;SDS011;2768;53.540;10.224;2024-03-02T03:05:45;27.83;;;20.30;;
5491;SDS011;2768;53.540;10.224;2024-03-02T03:11:38;31.23;;;22.77;;
5491;SDS011;2768;53.540;10.224;2024-03-02T03:17:33;32.97;;;23.70;;
5491;SDS011;2768;53.540;10.224;2024-03-02T03:23:26;30.97;;;22.70;;
5491;SDS011;2768;53.540;10.224;2024-03-02T03:29:19;34.73;;;22.70;;
5491;SDS011;2768;53.540;10.224;2024-03-02T03:35:14;29.17;;;21.90;;
5491;SDS011;2768;53.540;10.224;2024-03-02T03:41:08;32.30;;;21.83;;
5491;SDS011;2768;53.540;10.224;2024-03-02T03:47:01;30.63;;;21.40;;
5491;SDS011;2768;53.540;10.224;2024-03-02T03:52:56;30.03;;;21.10;;
5491;SDS011;2768;53.540;10.224;2024-03-02T03:58:49;28.20;;;20.90;;
5491;SDS011;2768;53.540;10.224;2024-03-02T04:04:42;30.23;;;21.70;;
5491;SDS011;2768;53.540;10.224;2024-03-02T04:10:37;30.03;;;21.93;;
5491;SDS011;2768;53.540;10.224;2024-03-02T04:16:31;29.73;;;20.83;;
5491;SDS011;2768;53.540;10.224;2024-03-02T04:22:25;27.27;;;21.30;;
5491;SDS011;2768;53.540;10.224;2024-03-02T04:28:20;25.83;;;19.70;;
5491;SDS011;2768;53.540;10.224;2024-03-02T04:34:14;28.60;;;21.33;;
5491;SDS011;2768;53.540;10.224;2024-03-02T04:40:07;26.33;;;19.90;;
5491;SDS011;2768;53.540;10.224;2024-03-02T04:46:03;27.70;;;20.37;;
5491;SDS011;2768;53.540;10.224;2024-03-02T04:51:57;27.20;;;20.77;;
5491;SDS011;2768;53.540;10.224;2024-03-02T04:57:50;25.40;;;18.53;;
5491;SDS011;2768;53.540;10.224;2024-03-02T05:03:48;25.50;;;19.57;;
5491;SDS011;2768;53.540;10.224;2024-03-02T05:09:41;27.87;;;21.57;;
5491;SDS011;2768;53.540;10.224;2024-03-02T05:15:34;24.67;;;19.50;;
5491;SDS011;2768;53.540;10.224;2024-03-02T05:21:29;24.13;;;19.67;;
5491;SDS011;2768;53.540;10.224;2024-03-02T05:27:22;28.20;;;19.57;;
5491;SDS011;2768;53.540;10.224;2024-03-02T05:33:15;27.27;;;20.60;;
5491;SDS011;2768;53.540;10.224;2024-03-02T05:39:10;26.07;;;19.83;;
5491;SDS011;2768;53.540;10.224;2024-03-02T05:45:04;23.50;;;18.70;;
5491;SDS011;2768;53.540;10.224;2024-03-02T05:50:58;28.10;;;19.73;;
5491;SDS011;2768;53.540;10.224;2024-03-02T05:56:52;26.70;;;21.00;;
5491;SDS011;2768;53.540;10.224;2024-03-02T06:02:46;27.07;;;20.00;;
5491;SDS011;2768;53.540;10.224;2024-03-02T06:08:39;30.57;;;20.07;;
5491;SDS011;2768;53.540;10.224;2024-03-02T06:14:34;26.37;;;19.87;;
5491;SDS011;2768;53.540;10.224;2024-03-02T06:20:27;27.20;;;19.90;;
5491;SDS011;2768;53.540;10.224;2024-03-02T06:26:26;24.37;;;19.00;;
5491;SDS011;2768;53.540;10.224;2024-03-02T06:32:22;23.43;;;18.43;;
5491;SDS011;2768;53.540;10.224;2024-03-02T06:38:16;24.03;;;18.53;;
5491;SDS011;2768;53.540;10.224;2024-03-02T06:44:11;22.37;;;18.07;;
5491;SDS011;2768;53.540;10.224;2024-03-02T06:50:05;25.17;;;19.30;;
5491;SDS011;2768;53.540;10.224;2024-03-02T06:55:59;24.63;;;18.07;;
5491;SDS011;2768;53.540;10.224;2024-03-02T07:01:52;22.00;;;17.53;;
5491;SDS011;2768;53.540;10.224;2024-03-02T07:07:47;23.20;;;17.80;;
5491;SDS011;2768;53.540;10.224;2024-03-02T07:13:40;23.63;;;17.47;;
5491;SDS011;2768;53.540;10.224;2024-03-02T07:19:33;25.67;;;18.70;;
5491;SDS011;2768;53.540;10.224;2024-03-02T07:25:28;24.63;;;18.17;;
5491;SDS011;2768;53.540;10.224;2024-03-02T07:31:24;25.43;;;19.60;;
5491;SDS011;2768;53.540;10.224;2024-03-02T07:37:17;26.83;;;18.83;;
5491;SDS011;2768;53.540;10.224;2024-03-02T07:43:13;24.37;;;19.03;;
5491;SDS011;2768;53.540;10.224;2024-03-02T07:49:06;22.93;;;17.70;;
5491;SDS011;2768;53.540;10.224;2024-03-02T07:54:59;26.83;;;18.03;;
5491;SDS011;2768;53.540;10.224;2024-03-02T08:00:54;22.13;;;17.07;;
5491;SDS011;2768;53.540;10.224;2024-03-02T08:06:47;20.30;;;15.90;;
5491;SDS011;2768;53.540;10.224;2024-03-02T08:12:40;22.70;;;16.90;;
5491;SDS011;2768;53.540;10.224;2024-03-02T08:18:35;22.37;;;17.50;;
5491;SDS011;2768;53.540;10.224;2024-03-02T08:24:28;22.03;;;17.27;;
5491;SDS011;2768;53.540;10.224;2024-03-02T08:30:21;21.00;;;16.60;;
5491;SDS011;2768;53.540;10.224;2024-03-02T08:36:16;21.03;;;15.93;;
5491;SDS011;2768;53.540;10.224;2024-03-02T08:42:10;19.23;;;15.37;;
5491;SDS011;2768;53.540;10.224;2024-03-02T08:48:04;21.93;;;17.13;;
5491;SDS011;2768;53.540;10.224;2024-03-02T08:53:59;20.20;;;16.13;;
5491;SDS011;2768;53.540;10.224;2024-03-02T08:59:52;22.40;;;17.00;;
5491;SDS011;2768;53.540;10.224;2024-03-02T09:05:46;22.30;;;16.77;;
5491;SDS011;2768;53.540;10.224;2024-03-02T09:11:40;22.63;;;17.03;;
5491;SDS011;2768;53.540;10.224;2024-03-02T09:17:33;23.00;;;16.57;;
5491;SDS011;2768;53.540;10.224;2024-03-02T09:23:27;21.63;;;16.50;;
5491;SDS011;2768;53.540;10.224;2024-03-02T09:29:21;20.77;;;16.03;;
5491;SDS011;2768;53.540;10.224;2024-03-02T09:35:14;22.40;;;16.53;;
5491;SDS011;2768;53.540;10.224;2024-03-02T09:41:07;21.37;;;16.60;;
5491;SDS011;2768;53.540;10.224;2024-03-02T09:47:02;22.17;;;15.70;;
5491;SDS011;2768;53.540;10.224;2024-03-02T09:52:57;21.57;;;16.43;;
5491;SDS011;2768;53.540;10.224;2024-03-02T09:58:51;20.70;;;16.50;;
5491;SDS011;2768;53.540;10.224;2024-03-02T10:04:45;19.90;;;14.57;;
5491;SDS011;2768;53.540;10.224;2024-03-02T10:10:41;18.67;;;14.90;;
5491;SDS011;2768;53.540;10.224;2024-03-02T10:16:35;15.67;;;13.20;;
5491;SDS011;2768;53.540;10.224;2024-03-02T10:22:31;17.07;;;13.27;;
5491;SDS011;2768;53.540;10.224;2024-03-02T10:28:24;17.27;;;13.30;;
5491;SDS011;2768;53.540;10.224;2024-03-02T10:34:19;17.10;;;12.70;;
5491;SDS011;2768;53.540;10.224;2024-03-02T10:40:16;14.80;;;13.20;;
5491;SDS011;2768;53.540;10.224;2024-03-02T10:46:09;15.97;;;13.60;;
5491;SDS011;2768;53.540;10.224;2024-03-02T10:52:04;16.90;;;12.70;;
5491;SDS011;2768;53.540;10.224;2024-03-02T10:57:58;17.80;;;13.87;;
5491;SDS011;2768;53.540;10.224;2024-03-02T11:03:56;15.37;;;13.53;;
5491;SDS011;2768;53.540;10.224;2024-03-02T11:09:52;13.17;;;11.30;;
5491;SDS011;2768;53.540;10.224;2024-03-02T11:15:51;13.63;;;11.00;;
5491;SDS011;2768;53.540;10.224;2024-03-02T11:21:48;16.57;;;12.20;;
5491;SDS011;2768;53.540;10.224;2024-03-02T11:28:00;12.40;;;11.10;;
5491;SDS011;2768;53.540;10.224;2024-03-02T11:33:59;11.60;;;9.93;;
5491;SDS011;2768;53.540;10.224;2024-03-02T11:40:10;11.33;;;10.13;;
5491;SDS011;2768;53.540;10.224;2024-03-02T11:46:04;11.43;;;9.00;;
5491;SDS011;2768;53.540;10.224;2024-03-02T11:52:01;12.43;;;11.00;;
5491;SDS011;2768;53.540;10.224;2024-03-02T11:57:55;12.73;;;10.80;;
5491;SDS011;2768;53.540;10.224;2024-03-02T12:03:49;13.20;;;11.47;;
5491;SDS011;2768;53.540;10.224;2024-03-02T12:09:45;12.03;;;10.80;;
5491;SDS011;2768;53.540;10.224;2024-03-02T12:15:38;13.13;;;10.00;;
5491;SDS011;2768;53.540;10.224;2024-03-02T12:21:32;12.97;;;10.80;;
5491;SDS011;2768;53.540;10.224;2024-03-02T12:27:27;11.00;;;9.80;;
5491;SDS011;2768;53.540;10.224;2024-03-02T12:33:20;12.30;;;10.10;;
5491;SDS011;2768;53.540;10.224;2024-03-02T12:39:13;11.60;;;9.80;;
5491;SDS011;2768;53.540;10.224;2024-03-02T12:45:08;12.67;;;10.00;;
5491;SDS011;2768;53.540;10.224;2024-03-02T12:51:02;11.30;;;10.10;;
5491;SDS011;2768;53.540;10.224;2024-03-02T12:56:56;12.10;;;9.63;;
5491;SDS011;2768;53.540;10.224;2024-03-02T13:02:51;11.50;;;9.70;;
5491;SDS011;2768;53.540;10.224;2024-03-02T13:08:44;10.17;;;9.00;;
5491;SDS011;2768;53.540;10.224;2024-03-02T13:14:38;9.87;;;8.30;;
5491;SDS011;2768;53.540;10.224;2024-03-02T13:20:33;11.27;;;9.40;;
5491;SDS011;2768;53.540;10.224;2024-03-02T13:26:26;11.13;;;9.27;;
5491;SDS011;2768;53.540;10.224;2024-03-02T13:32:20;10.37;;;8.50;;
5491;SDS011;2768;53.540;10.224;2024-03-02T13:38:16;11.23;;;9.07;;
5491;SDS011;2768;53.540;10.224;2024-03-02T13:44:10;11.43;;;9.37;;
5491;SDS011;2768;53.540;10.224;2024-03-02T13:50:05;11.57;;;9.80;;
5491;SDS011;2768;53.540;10.224;2024-03-02T13:56:00;12.37;;;9.00;;
5491;SDS011;2768;53.540;10.224;2024-03-02T14:01:53;11.50;;;9.17;;
5491;SDS011;2768;53.540;10.224;2024-03-02T14:07:47;12.90;;;9.47;;
5491;SDS011;2768;53.540;10.224;2024-03-02T14:13:42;11.23;;;9.40;;
5491;SDS011;2768;53.540;10.224;2024-03-02T14:19:39;10.23;;;9.13;;
5491;SDS011;2768;53.540;10.224;2024-03-02T14:25:32;10.80;;;9.50;;
5491;SDS011;2768;53.540;10.224;2024-03-02T14:31:27;10.97;;;9.73;;
5491;SDS011;2768;53.540;10.224;2024-03-02T14:37:20;13.80;;;9.90;;
5491;SDS011;2768;53.540;10.224;2024-03-02T14:43:13;11.33;;;9.30;;
5491;SDS011;2768;53.540;10.224;2024-03-02T14:49:08;10.60;;;8.63;;
5491;SDS011;2768;53.540;10.224;2024-03-02T14:55:02;11.60;;;10.27;;
5491;SDS011;2768;53.540;10.224;2024-03-02T15:00:59;12.07;;;10.10;;
5491;SDS011;2768;53.540;10.224;2024-03-02T15:06:53;12.87;;;11.23;;
5491;SDS011;2768;53.540;10.224;2024-03-02T15:12:47;11.63;;;9.87;;
5491;SDS011;2768;53.540;10.224;2024-03-02T15:18:41;10.50;;;9.23;;
5491;SDS011;2768;53.540;10.224;2024-03-02T15:24:36;10.73;;;9.00;;
5491;SDS011;2768;53.540;10.224;2024-03-02T15:30:29;10.87;;;9.13;;
5491;SDS011;2768;53.540;10.224;2024-03-02T15:36:22;9.63;;;8.63;;
5491;SDS011;2768;53.540;10.224;2024-03-02T15:42:17;10.13;;;7.60;;
5491;SDS011;2768;53.540;10.224;2024-03-02T15:48:10;9.63;;;7.53;;
5491;SDS011;2768;53.540;10.224;2024-03-02T15:54:06;8.53;;;6.93;;
5491;SDS011;2768;53.540;10.224;2024-03-02T16:00:01;9.73;;;7.43;;
5491;SDS011;2768;53.540;10.224;2024-03-02T16:06:01;8.50;;;7.00;;
5491;SDS011;2768;53.540;10.224;2024-03-02T16:11:55;11.27;;;9.60;;
5491;SDS011;2768;53.540;10.224;2024-03-02T16:17:50;10.53;;;8.70;;
5491;SDS011;2768;53.540;10.224;2024-03-02T16:23:43;13.80;;;9.97;;
5491;SDS011;2768;53.540;10.224;2024-03-02T16:29:36;11.77;;;9.57;;
5491;SDS011;2768;53.540;10.224;2024-03-02T16:35:31;11.93;;;10.10;;
5491;SDS011;2768;53.540;10.224;2024-03-02T16:41:24;9.70;;;8.17;;
5491;SDS011;2768;53.540;10.224;2024-03-02T16:47:21;10.93;;;9.30;;
5491;SDS011;2768;53.540;10.224;2024-03-02T16:53:16;10.37;;;8.50;;
5491;SDS011;2768;53.540;10.224;2024-03-02T16:59:09;13.20;;;10.87;;
5491;SDS011;2768;53.540;10.224;2024-03-02T17:05:03;12.70;;;8.73;;
5491;SDS011;2768;53.540;10.224;2024-03-02T17:10:58;10.20;;;8.23;;
5491;SDS011;2768;53.540;10.224;2024-03-02T17:16:51;10.50;;;9.40;;
5491;SDS011;2768;53.540;10.224;2024-03-02T17:22:44;13.90;;;10.10;;
5491;SDS011;2768;53.540;10.224;2024-03-02T17:28:39;15.30;;;10.90;;
5491;SDS011;2768;53.540;10.224;2024-03-02T17:34:33;14.60;;;11.37;;
5491;SDS011;2768;53.540;10.224;2024-03-02T17:40:26;14.90;;;12.63;;
5491;SDS011;2768;53.540;10.224;2024-03-02T17:46:21;17.90;;;13.53;;
5491;SDS011;2768;53.540;10.224;2024-03-02T17:52:14;17.03;;;13.30;;
5491;SDS011;2768;53.540;10.224;2024-03-02T17:58:07;16.73;;;13.90;;
5491;SDS011;2768;53.540;10.224;2024-03-02T18:04:02;19.50;;;14.57;;
5491;SDS011;2768;53.540;10.224;2024-03-02T18:10:00;15.20;;;13.00;;
5491;SDS011;2768;53.540;10.224;2024-03-02T18:15:54;17.00;;;13.57;;
5491;SDS011;2768;53.540;10.224;2024-03-02T18:21:48;17.57;;;14.80;;
5491;SDS011;2768;53.540;10.224;2024-03-02T18:27:42;17.17;;;13.50;;
5491;SDS011;2768;53.540;10.224;2024-03-02T18:33:35;18.40;;;14.40;;
5491;SDS011;2768;53.540;10.224;2024-03-02T18:39:30;17.00;;;13.63;;
5491;SDS011;2768;53.540;10.224;2024-03-02T18:45:23;17.50;;;13.57;;
5491;SDS011;2768;53.540;10.224;2024-03-02T18:51:19;17.77;;;15.50;;
5491;SDS011;2768;53.540;10.224;2024-03-02T18:57:15;22.10;;;16.30;;
5491;SDS011;2768;53.540;10.224;2024-03-02T19:03:09;21.50;;;16.33;;
5491;SDS011;2768;53.540;10.224;2024-03-02T19:09:02;20.27;;;16.23;;
5491;SDS011;2768;53.540;10.224;2024-03-02T19:14:57;20.00;;;16.37;;
5491;SDS011;2768;53.540;10.224;2024-03-02T19:20:52;20.73;;;17.37;;
5491;SDS011;2768;53.540;10.224;2024-03-02T19:26:46;19.70;;;15.87;;
5491;SDS011;2768;53.540;10.224;2024-03-02T19:32:41;22.73;;;18.03;;
5491;SDS011;2768;53.540;10.224;2024-03-02T19:38:34;25.20;;;19.67;;
5491;SDS011;2768;53.540;10.224;2024-03-02T19:44:28;18.37;;;16.20;;
5491;SDS011;2768;53.540;10.224;2024-03-02T19:50:25;19.40;;;16.33;;
5491;SDS011;2768;53.540;10.224;2024-03-02T19:56:19;18.47;;;15.43;;
5491;SDS011;2768;53.540;10.224;2024-03-02T20:02:12;19.07;;;15.70;;
5491;SDS011;2768;53.540;10.224;2024-03-02T20:08:10;17.53;;;14.60;;
5491;SDS011;2768;53.540;10.224;2024-03-02T20:14:03;19.57;;;15.90;;
5491;SDS011;2768;53.540;10.224;2024-03-02T20:19:57;17.77;;;15.20;;
5491;SDS011;2768;53.540;10.224;2024-03-02T20:25:52;17.50;;;14.43;;
5491;SDS011;2768;53.540;10.224;2024-03-02T20:31:46;16.20;;;14.07;;
5491;SDS011;2768;53.540;10.224;2024-03-02T20:37:39;15.83;;;13.33;;
5491;SDS011;2768;53.540;10.224;2024-03-02T20:43:35;21.73;;;17.20;;
5491;SDS011;2768;53.540;10.224;2024-03-02T20:49:29;14.33;;;12.80;;
5491;SDS011;2768;53.540;10.224;2024-03-02T20:55:22;16.70;;;14.33;;
5491;SDS011;2768;53.540;10.224;2024-03-02T21:01:17;13.90;;;12.30;;
5491;SDS011;2768;53.540;10.224;2024-03-02T21:07:11;13.93;;;12.13;;
5491;SDS011;2768;53.540;10.224;2024-03-02T21:13:05;15.10;;;12.60;;
5491;SDS011;2768;53.540;10.224;2024-03-02T21:18:59;14.07;;;11.90;;
5491;SDS011;2768;53.540;10.224;2024-03-02T21:24:53;15.80;;;12.57;;
5491;SDS011;2768;53.540;10.224;2024-03-02T21:30:52;15.40;;;12.63;;
5491;SDS011;2768;53.540;10.224;2024-03-02T21:36:47;18.03;;;13.93;;
5491;SDS011;2768;53.540;10.224;2024-03-02T21:42:40;16.20;;;13.93;;
5491;SDS011;2768;53.540;10.224;2024-03-02T21:48:34;17.40;;;13.90;;
5491;SDS011;2768;53.540;10.224;2024-03-02T21:54:29;25.23;;;14.17;;
5491;SDS011;2768;53.540;10.224;2024-03-02T22:00:22;18.77;;;15.40;;
5491;SDS011;2768;53.540;10.224;2024-03-02T22:06:16;22.60;;;17.17;;
5491;SDS011;2768;53.540;10.224;2024-03-02T22:12:11;18.03;;;14.80;;
5491;SDS011;2768;53.540;10.224;2024-03-02T22:18:04;19.30;;;15.00;;
5491;SDS011;2768;53.540;10.224;2024-03-02T22:23:58;19.73;;;14.93;;
5491;SDS011;2768;53.540;10.224;2024-03-02T22:29:53;17.67;;;15.77;;
5491;SDS011;2768;53.540;10.224;2024-03-02T22:35:46;18.60;;;15.37;;
5491;SDS011;2768;53.540;10.224;2024-03-02T22:41:40;19.73;;;15.40;;
5491;SDS011;2768;53.540;10.224;2024-03-02T22:47:34;20.40;;;15.60;;
5491;SDS011;2768;53.540;10.224;2024-03-02T22:53:28;19.57;;;15.60;;
5491;SDS011;2768;53.540;10.224;2024-03-02T22:59:21;20.30;;;16.10;;
5491;SDS011;2768;53.540;10.224;2024-03-02T23:05:16;19.27;;;15.40;;
5491;SDS011;2768;53.540;10.224;2024-03-02T23:11:10;20.13;;;15.73;;
5491;SDS011;2768;53.540;10.224;2024-03-02T23:17:04;22.63;;;16.63;;
5491;SDS011;2768;53.540;10.224;2024-03-02T23:22:59;18.97;;;16.00;;
5491;SDS011;2768;53.540;10.224;2024-03-02T23:28:55;17.37;;;14.50;;
5491;SDS011;2768;53.540;10.224;2024-03-02T23:34:49;19.20;;;15.37;;
5491;SDS011;2768;53.540;10.224;2024-03-02T23:40:44;19.33;;;16.50;;
5491;SDS011;2768;53.540;10.224;2024-03-02T23:47:00;21.50;;;15.87;;
5491;SDS011;2768;53.540;10.224;2024-03-02T23:52:53;24.27;;;17.60;;
5491;SDS011;2768;53.540;10.224;2024-03-02T23:58:48;20.60;;;17.03;;
